Time;durP1;ratioP1;P1;durP2;ratioP2;P2;SDS_P1;SDS_P2;PMS_P1;PMS_P2;Temp;Humidity;BMP_temperature;BMP_pressure;BME280_temperature;BME280_humidity;BME280_pressure;Samples;Min_cycle;Max_cycle;Signal;HPM_P1;HPM_P2
2023/04/07 00:00:41;;;;;;;8.63;5.05;;;;;;;;;;6119245;23;20285;-83
2023/04/07 00:03:07;;;;;;;10.20;5.55;;;;;;;;;;6119701;23;20607;-83
2023/04/07 00:05:33;;;;;;;10.38;5.57;;;;;;;;;;6142116;23;20013;-82
2023/04/07 00:07:58;;;;;;;8.20;5.43;;;;;;;;;;6145696;23;20017;-81
2023/04/07 00:10:24;;;;;;;8.63;4.93;;;;;;;;;;6071867;23;20020;-83
2023/04/07 00:12:50;;;;;;;9.80;5.35;;;;;;;;;;6120480;23;20076;-83
2023/04/07 00:15:15;;;;;;;10.05;5.40;;;;;;;;;;6094611;23;20100;-82
2023/04/07 00:17:41;;;;;;;9.10;5.90;;;;;;;;;;6120159;23;20081;-83
2023/04/07 00:20:07;;;;;;;11.48;5.95;;;;;;;;;;6096163;23;20017;-84
2023/04/07 00:22:32;;;;;;;9.48;5.30;;;;;;;;;;6118828;23;20046;-82
2023/04/07 00:24:57;;;;;;;10.23;5.70;;;;;;;;;;6147402;23;20018;-82
2023/04/07 00:27:23;;;;;;;8.77;5.28;;;;;;;;;;6094845;23;20355;-85
2023/04/07 00:29:48;;;;;;;11.40;5.72;;;;;;;;;;6095886;23;20010;-84
2023/04/07 00:32:13;;;;;;;10.52;5.50;;;;;;;;;;6119331;23;20359;-83
2023/04/07 00:34:39;;;;;;;11.07;6.03;;;;;;;;;;6120574;23;20017;-84
2023/04/07 00:37:05;;;;;;;11.32;5.63;;;;;;;;;;6119474;23;20009;-83
2023/04/07 00:39:31;;;;;;;9.30;5.50;;;;;;;;;;6146610;23;20017;-83
2023/04/07 00:41:57;;;;;;;9.50;5.47;;;;;;;;;;6145498;23;20440;-82
2023/04/07 00:44:22;;;;;;;10.40;5.35;;;;;;;;;;6119921;23;20060;-84
2023/04/07 00:46:48;;;;;;;11.52;6.38;;;;;;;;;;6119204;23;20467;-83
2023/04/07 00:49:16;;;;;;;8.95;5.05;;;;;;;;;;6146279;23;20034;-83
2023/04/07 00:51:42;;;;;;;9.45;5.60;;;;;;;;;;6095490;23;20014;-82
2023/04/07 00:54:08;;;;;;;9.13;4.95;;;;;;;;;;6145852;23;20535;-82
2023/04/07 00:56:33;;;;;;;10.65;5.15;;;;;;;;;;6119860;23;20021;-82
2023/04/07 00:58:59;;;;;;;10.50;5.45;;;;;;;;;;6095050;23;20031;-82
2023/04/07 01:01:30;;;;;;;10.25;6.00;;;;;;;;;;6120146;23;20021;-83
2023/04/07 01:04:01;;;;;;;13.75;6.10;;;;;;;;;;6119814;23;20036;-83
2023/04/07 01:06:30;;;;;;;10.63;5.47;;;;;;;;;;6119368;23;20014;-84
2023/04/07 01:09:13;;;;;;;11.73;5.60;;;;;;;;;;6119504;23;20021;-82
2023/04/07 01:11:43;;;;;;;11.02;5.72;;;;;;;;;;6093994;23;20079;-84
2023/04/07 01:14:11;;;;;;;9.70;5.63;;;;;;;;;;6118913;23;20037;-83
2023/04/07 01:16:46;;;;;;;10.95;6.05;;;;;;;;;;6118506;23;20013;-83
2023/04/07 01:19:29;;;;;;;12.48;6.18;;;;;;;;;;6095386;23;20013;-84
2023/04/07 01:21:56;;;;;;;9.23;5.32;;;;;;;;;;6145408;23;20021;-83
2023/04/07 01:24:45;;;;;;;11.00;6.10;;;;;;;;;;6118800;23;20017;-84
2023/04/07 01:27:27;;;;;;;10.02;5.45;;;;;;;;;;6118576;23;20024;-83
2023/04/07 01:29:53;;;;;;;8.43;5.30;;;;;;;;;;6120343;23;20013;-84
2023/04/07 01:32:22;;;;;;;8.68;4.90;;;;;;;;;;6118816;23;20029;-84
2023/04/07 01:34:49;;;;;;;10.82;5.45;;;;;;;;;;6120166;23;20451;-84
2023/04/07 01:37:15;;;;;;;7.68;4.57;;;;;;;;;;6118914;23;20021;-84
2023/04/07 01:39:41;;;;;;;9.68;5.18;;;;;;;;;;6119481;23;20345;-84
2023/04/07 01:42:07;;;;;;;8.55;4.90;;;;;;;;;;6119463;23;20015;-84
2023/04/07 01:44:33;;;;;;;9.40;5.05;;;;;;;;;;6145604;23;20029;-84
2023/04/07 01:46:59;;;;;;;10.40;4.90;;;;;;;;;;6094936;23;20067;-83
2023/04/07 01:49:25;;;;;;;9.73;5.35;;;;;;;;;;6119994;23;20014;-84
2023/04/07 01:51:51;;;;;;;10.18;5.18;;;;;;;;;;6144145;23;20487;-83
2023/04/07 01:54:17;;;;;;;9.45;4.95;;;;;;;;;;6120074;23;20025;-83
2023/04/07 01:56:44;;;;;;;9.93;5.40;;;;;;;;;;6145161;23;20071;-84
2023/04/07 01:59:09;;;;;;;10.73;5.22;;;;;;;;;;6119361;23;20367;-84
2023/04/07 02:01:35;;;;;;;7.43;4.43;;;;;;;;;;6119090;23;20029;-83
2023/04/07 02:04:21;;;;;;;11.25;4.93;;;;;;;;;;6106737;23;20024;-83
2023/04/07 02:06:53;;;;;;;9.18;4.97;;;;;;;;;;6119855;23;20664;-84
2023/04/07 02:09:20;;;;;;;9.00;4.50;;;;;;;;;;6120106;23;20092;-84
2023/04/07 02:11:46;;;;;;;9.20;5.10;;;;;;;;;;6121381;23;20444;-83
2023/04/07 02:14:13;;;;;;;10.40;5.10;;;;;;;;;;6119052;23;20343;-83
2023/04/07 02:16:39;;;;;;;10.02;4.47;;;;;;;;;;6145018;23;20017;-83
2023/04/07 02:19:04;;;;;;;10.20;5.28;;;;;;;;;;6119790;23;20084;-83
2023/04/07 02:21:32;;;;;;;8.85;4.53;;;;;;;;;;6119724;23;20851;-82
2023/04/07 02:23:59;;;;;;;;;;;;;;;;;;6096123;23;20034;-84
2023/04/07 02:26:25;;;;;;;;;;;;;;;;;;6145024;23;20338;-84
2023/04/07 02:28:50;;;;;;;7.28;4.10;;;;;;;;;;6168058;23;19967;-84
2023/04/07 02:31:15;;;;;;;9.20;4.50;;;;;;;;;;6094982;23;20097;-84
2023/04/07 02:33:41;;;;;;;8.55;4.32;;;;;;;;;;6094161;23;20020;-83
2023/04/07 02:36:06;;;;;;;8.00;4.20;;;;;;;;;;6094752;23;20013;-83
2023/04/07 02:38:31;;;;;;;9.02;4.70;;;;;;;;;;6118772;23;20156;-84
2023/04/07 02:40:58;;;;;;;7.93;4.80;;;;;;;;;;6120424;23;20096;-84
2023/04/07 02:43:24;;;;;;;8.15;4.32;;;;;;;;;;6119049;23;20474;-83
2023/04/07 02:45:49;;;;;;;9.13;4.05;;;;;;;;;;6093779;23;20017;-84
2023/04/07 02:48:15;;;;;;;6.95;3.95;;;;;;;;;;6119087;23;20024;-84
2023/04/07 02:50:40;;;;;;;9.40;4.47;;;;;;;;;;6118167;23;20097;-84
2023/04/07 02:53:06;;;;;;;7.93;3.72;;;;;;;;;;6118720;23;20021;-83
2023/04/07 02:55:31;;;;;;;7.03;3.70;;;;;;;;;;6118559;23;20124;-83
2023/04/07 02:57:57;;;;;;;9.32;4.03;;;;;;;;;;6119486;23;20014;-83
2023/04/07 03:00:22;;;;;;;8.32;4.13;;;;;;;;;;6118596;23;20024;-82
2023/04/07 03:02:47;;;;;;;8.52;3.88;;;;;;;;;;6144998;23;21917;-83
2023/04/07 03:05:13;;;;;;;7.38;4.13;;;;;;;;;;6094091;23;20332;-82
2023/04/07 03:07:38;;;;;;;7.82;4.25;;;;;;;;;;6121121;23;20325;-83
2023/04/07 03:10:04;;;;;;;8.60;4.50;;;;;;;;;;6121071;23;20013;-84
2023/04/07 03:12:30;;;;;;;7.43;3.88;;;;;;;;;;6146404;23;20013;-82
2023/04/07 03:14:55;;;;;;;10.00;4.72;;;;;;;;;;6097595;23;20493;-83
2023/04/07 03:17:21;;;;;;;7.72;4.30;;;;;;;;;;6120367;23;20022;-84
2023/04/07 03:19:46;;;;;;;10.73;4.60;;;;;;;;;;6121326;23;20079;-83
2023/04/07 03:22:11;;;;;;;8.93;4.97;;;;;;;;;;6095433;23;20093;-82
2023/04/07 03:24:38;;;;;;;9.32;4.75;;;;;;;;;;6121254;23;20022;-84
2023/04/07 03:27:04;;;;;;;11.18;5.10;;;;;;;;;;6119844;23;20068;-83
2023/04/07 03:29:29;;;;;;;9.98;4.95;;;;;;;;;;6120706;23;20021;-82
2023/04/07 03:31:55;;;;;;;8.43;4.47;;;;;;;;;;6120910;23;20088;-83
2023/04/07 03:34:20;;;;;;;10.57;4.63;;;;;;;;;;6120951;23;20399;-83
2023/04/07 03:36:45;;;;;;;9.45;5.05;;;;;;;;;;6119249;23;20409;-82
2023/04/07 03:39:11;;;;;;;8.80;4.22;;;;;;;;;;6147021;23;20025;-82
2023/04/07 03:41:37;;;;;;;9.55;4.68;;;;;;;;;;6119575;23;20340;-82
2023/04/07 03:44:02;;;;;;;9.23;4.50;;;;;;;;;;6132562;23;20025;-82
2023/04/07 03:46:28;;;;;;;8.05;4.22;;;;;;;;;;6091352;23;20359;-82
2023/04/07 03:48:53;;;;;;;9.98;4.50;;;;;;;;;;6066981;23;20018;-84
2023/04/07 03:51:19;;;;;;;10.50;4.97;;;;;;;;;;6090910;23;20042;-82
2023/04/07 03:53:44;;;;;;;10.77;4.50;;;;;;;;;;6091599;23;20013;-83
2023/04/07 03:56:10;;;;;;;8.73;4.25;;;;;;;;;;6115402;23;20460;-82
2023/04/07 03:58:35;;;;;;;9.65;4.53;;;;;;;;;;6067160;23;20302;-82
2023/04/07 04:01:01;;;;;;;8.32;4.63;;;;;;;;;;6089943;23;20557;-81
2023/04/07 04:03:27;;;;;;;9.45;4.57;;;;;;;;;;6091197;23;20029;-82
2023/04/07 04:05:52;;;;;;;9.02;4.32;;;;;;;;;;6091188;23;20017;-83
2023/04/07 04:08:18;;;;;;;9.45;4.22;;;;;;;;;;6066381;23;21445;-82
2023/04/07 04:10:44;;;;;;;10.23;4.30;;;;;;;;;;6090814;23;20017;-82
2023/04/07 04:13:10;;;;;;;8.32;4.53;;;;;;;;;;6090444;23;20456;-82
2023/04/07 04:15:35;;;;;;;7.47;4.22;;;;;;;;;;6116351;23;20424;-82
2023/04/07 04:18:00;;;;;;;7.15;4.10;;;;;;;;;;6091029;23;20024;-82
2023/04/07 04:20:26;;;;;;;8.82;4.60;;;;;;;;;;6090587;23;20033;-84
2023/04/07 04:22:51;;;;;;;9.90;4.30;;;;;;;;;;6090932;23;20014;-85
2023/04/07 04:25:17;;;;;;;8.25;4.57;;;;;;;;;;6090200;23;20058;-84
2023/04/07 04:27:43;;;;;;;8.48;4.28;;;;;;;;;;6090573;23;20041;-84
2023/04/07 04:30:08;;;;;;;8.43;4.38;;;;;;;;;;6116881;23;20467;-83
2023/04/07 04:32:34;;;;;;;8.05;3.97;;;;;;;;;;6089780;23;20010;-84
2023/04/07 04:34:59;;;;;;;8.60;4.00;;;;;;;;;;6091065;23;20385;-83
2023/04/07 04:37:25;;;;;;;8.40;4.25;;;;;;;;;;6066828;23;20089;-84
2023/04/07 04:39:50;;;;;;;7.55;4.18;;;;;;;;;;6090726;23;20018;-84
2023/04/07 04:42:15;;;;;;;7.85;4.20;;;;;;;;;;6090573;23;20033;-83
2023/04/07 04:44:41;;;;;;;6.78;3.67;;;;;;;;;;6138425;23;20367;-83
2023/04/07 04:47:06;;;;;;;8.05;4.15;;;;;;;;;;6118601;23;20017;-84
2023/04/07 04:49:31;;;;;;;8.68;4.30;;;;;;;;;;6094936;23;20014;-83
2023/04/07 04:51:57;;;;;;;8.93;4.55;;;;;;;;;;6119197;23;20014;-82
2023/04/07 04:54:22;;;;;;;8.82;4.68;;;;;;;;;;6119851;23;20028;-83
2023/04/07 04:56:48;;;;;;;11.88;4.85;;;;;;;;;;6119648;23;20474;-83
2023/04/07 04:59:13;;;;;;;8.57;4.07;;;;;;;;;;6119584;23;20040;-82
2023/04/07 05:01:39;;;;;;;8.45;3.90;;;;;;;;;;6119029;23;20059;-83
2023/04/07 05:04:04;;;;;;;8.10;4.28;;;;;;;;;;6119621;23;20014;-83
2023/04/07 05:06:30;;;;;;;9.93;4.53;;;;;;;;;;6094969;23;20017;-82
2023/04/07 05:08:55;;;;;;;7.55;4.28;;;;;;;;;;6147169;23;20013;-83
2023/04/07 05:11:21;;;;;;;7.82;4.30;;;;;;;;;;6093947;23;20013;-84
2023/04/07 05:13:46;;;;;;;8.68;4.28;;;;;;;;;;6146096;23;20018;-83
2023/04/07 05:16:14;;;;;;;9.95;4.32;;;;;;;;;;6118219;23;20112;-83
2023/04/07 05:18:40;;;;;;;8.45;4.38;;;;;;;;;;6146592;23;20076;-83
2023/04/07 05:21:06;;;;;;;7.75;4.10;;;;;;;;;;6145938;23;20025;-83
2023/04/07 05:23:31;;;;;;;9.68;4.38;;;;;;;;;;6145635;23;20440;-80
2023/04/07 05:25:56;;;;;;;8.75;4.05;;;;;;;;;;6119141;23;20396;-82
2023/04/07 05:28:22;;;;;;;9.27;3.90;;;;;;;;;;6118273;23;20025;-81
2023/04/07 05:30:47;;;;;;;8.93;4.10;;;;;;;;;;6144987;23;20475;-81
2023/04/07 05:33:12;;;;;;;8.18;4.20;;;;;;;;;;6119562;23;20044;-81
2023/04/07 05:35:38;;;;;;;8.55;4.70;;;;;;;;;;6118068;23;20013;-81
2023/04/07 05:38:03;;;;;;;8.60;3.75;;;;;;;;;;6119983;23;20014;-81
2023/04/07 05:40:31;;;;;;;7.22;3.85;;;;;;;;;;6145401;23;20096;-81
2023/04/07 05:42:57;;;;;;;8.93;4.40;;;;;;;;;;6119625;23;20064;-81
2023/04/07 05:45:22;;;;;;;8.02;3.90;;;;;;;;;;6144513;23;20096;-81
2023/04/07 05:47:49;;;;;;;7.80;4.20;;;;;;;;;;6119263;23;20014;-81
2023/04/07 05:50:15;;;;;;;8.47;4.17;;;;;;;;;;6094590;23;20315;-81
2023/04/07 05:52:41;;;;;;;9.32;4.32;;;;;;;;;;6119573;23;20035;-80
2023/04/07 05:55:07;;;;;;;8.82;4.22;;;;;;;;;;6117671;23;20092;-80
2023/04/07 05:57:33;;;;;;;13.10;4.68;;;;;;;;;;6118584;23;20344;-81
2023/04/07 05:59:59;;;;;;;7.70;3.85;;;;;;;;;;6096052;23;20010;-81
2023/04/07 06:02:24;;;;;;;8.50;4.20;;;;;;;;;;6118611;23;20344;-80
2023/04/07 06:04:49;;;;;;;8.05;4.28;;;;;;;;;;6119739;23;20498;-81
2023/04/07 06:07:15;;;;;;;10.43;4.95;;;;;;;;;;6118347;23;20451;-80
2023/04/07 06:09:41;;;;;;;8.35;4.45;;;;;;;;;;6120086;23;20418;-81
2023/04/07 06:12:08;;;;;;;9.48;4.60;;;;;;;;;;6143700;23;20024;-80
2023/04/07 06:14:33;;;;;;;10.35;4.82;;;;;;;;;;6094985;23;20510;-81
2023/04/07 06:16:59;;;;;;;8.95;5.10;;;;;;;;;;6094548;23;20033;-81
2023/04/07 06:19:26;;;;;;;9.25;4.75;;;;;;;;;;6118625;23;20112;-81
2023/04/07 06:21:51;;;;;;;9.63;5.13;;;;;;;;;;6094434;23;20040;-82
2023/04/07 06:24:17;;;;;;;9.18;4.53;;;;;;;;;;6094141;23;20030;-82
2023/04/07 06:26:43;;;;;;;9.40;5.15;;;;;;;;;;6118265;23;20076;-80
2023/04/07 06:29:08;;;;;;;9.23;5.35;;;;;;;;;;6118612;23;20052;-80
2023/04/07 06:31:34;;;;;;;9.70;5.00;;;;;;;;;;6143988;23;20017;-80
2023/04/07 06:33:59;;;;;;;8.40;4.80;;;;;;;;;;6119257;23;20014;-80
2023/04/07 06:36:26;;;;;;;9.10;4.93;;;;;;;;;;6119298;23;20045;-81
2023/04/07 06:38:51;;;;;;;8.13;4.88;;;;;;;;;;6119002;23;20399;-80
2023/04/07 06:41:17;;;;;;;11.95;5.55;;;;;;;;;;6119672;23;20101;-80
2023/04/07 06:43:43;;;;;;;9.77;4.88;;;;;;;;;;6120853;23;20064;-81
2023/04/07 06:46:09;;;;;;;9.15;5.20;;;;;;;;;;6120369;23;20052;-81
2023/04/07 06:48:34;;;;;;;9.27;5.25;;;;;;;;;;6146851;23;20048;-80
2023/04/07 06:51:00;;;;;;;12.05;5.20;;;;;;;;;;6095305;23;20010;-80
2023/04/07 06:53:25;;;;;;;8.23;4.80;;;;;;;;;;6120978;23;20024;-81
2023/04/07 06:55:50;;;;;;;9.00;5.07;;;;;;;;;;6146193;23;20017;-81
2023/04/07 06:58:16;;;;;;;12.18;5.28;;;;;;;;;;6120585;23;20029;-81
2023/04/07 07:00:41;;;;;;;10.48;5.60;;;;;;;;;;6145571;23;20064;-81
2023/04/07 07:03:07;;;;;;;8.85;4.70;;;;;;;;;;6119322;23;20354;-81
2023/04/07 07:05:32;;;;;;;10.23;5.43;;;;;;;;;;6120132;23;20022;-80
2023/04/07 07:07:57;;;;;;;11.15;5.20;;;;;;;;;;6120733;23;20378;-81
2023/04/07 07:10:23;;;;;;;9.52;5.30;;;;;;;;;;6119327;23;20403;-81
2023/04/07 07:12:49;;;;;;;9.00;5.05;;;;;;;;;;6096181;23;20072;-81
2023/04/07 07:15:15;;;;;;;12.25;5.75;;;;;;;;;;6095755;23;20486;-80
2023/04/07 07:17:40;;;;;;;11.57;5.50;;;;;;;;;;6120775;23;20017;-81
2023/04/07 07:20:06;;;;;;;12.00;5.43;;;;;;;;;;6096503;23;20073;-81
2023/04/07 07:22:31;;;;;;;10.18;5.40;;;;;;;;;;6119099;23;20148;-81
2023/04/07 07:24:57;;;;;;;9.32;4.78;;;;;;;;;;6121447;23;20013;-80
2023/04/07 07:27:24;;;;;;;10.20;4.80;;;;;;;;;;6145552;23;20014;-81
2023/04/07 07:29:50;;;;;;;9.38;5.03;;;;;;;;;;6146953;23;20024;-81
2023/04/07 07:32:15;;;;;;;8.73;5.40;;;;;;;;;;6119743;23;20763;-80
2023/04/07 07:34:41;;;;;;;8.77;5.00;;;;;;;;;;6119949;23;20424;-80
2023/04/07 07:37:06;;;;;;;11.90;5.57;;;;;;;;;;6120274;23;20021;-79
2023/04/07 07:39:32;;;;;;;9.55;4.88;;;;;;;;;;6120346;23;20391;-80
2023/04/07 07:41:57;;;;;;;9.40;5.25;;;;;;;;;;6120641;23;20016;-81
2023/04/07 07:44:23;;;;;;;9.45;4.85;;;;;;;;;;6146864;23;20017;-81
2023/04/07 07:46:49;;;;;;;9.90;5.28;;;;;;;;;;6119832;23;20081;-81
2023/04/07 07:49:15;;;;;;;11.30;5.68;;;;;;;;;;6094538;23;20022;-80
2023/04/07 07:51:41;;;;;;;10.27;4.70;;;;;;;;;;6119896;23;20364;-80
2023/04/07 07:54:08;;;;;;;10.05;5.05;;;;;;;;;;6095466;23;20017;-81
2023/04/07 07:56:34;;;;;;;10.45;5.55;;;;;;;;;;6096239;23;20092;-81
2023/04/07 07:58:59;;;;;;;7.38;4.78;;;;;;;;;;6096575;23;20025;-80
2023/04/07 08:01:24;;;;;;;8.35;5.18;;;;;;;;;;6119905;23;20410;-81
2023/04/07 08:03:50;;;;;;;8.18;4.82;;;;;;;;;;6120317;23;20014;-79
2023/04/07 08:06:15;;;;;;;10.07;5.13;;;;;;;;;;6119921;23;20022;-81
2023/04/07 08:08:41;;;;;;;8.00;4.75;;;;;;;;;;6146408;23;20470;-81
2023/04/07 08:11:06;;;;;;;7.20;4.28;;;;;;;;;;6119734;23;20025;-81
2023/04/07 08:13:31;;;;;;;9.82;4.68;;;;;;;;;;6145533;23;20278;-80
2023/04/07 08:15:57;;;;;;;7.32;3.72;;;;;;;;;;6096000;23;20075;-81
2023/04/07 08:18:24;;;;;;;8.32;3.63;;;;;;;;;;6119461;23;20080;-82
2023/04/07 08:20:50;;;;;;;6.63;3.50;;;;;;;;;;6145400;23;20987;-82
2023/04/07 08:23:16;;;;;;;6.43;3.28;;;;;;;;;;6119815;23;20014;-81
2023/04/07 08:25:41;;;;;;;7.50;3.28;;;;;;;;;;6119647;23;20024;-81
2023/04/07 08:28:06;;;;;;;7.22;3.08;;;;;;;;;;6146146;23;20021;-81
2023/04/07 08:30:32;;;;;;;6.72;3.40;;;;;;;;;;6118682;23;20009;-81
2023/04/07 08:32:57;;;;;;;6.43;3.17;;;;;;;;;;6120107;23;20041;-81
2023/04/07 08:35:22;;;;;;;5.88;2.83;;;;;;;;;;6144201;23;20136;-81
2023/04/07 08:37:49;;;;;;;6.43;2.90;;;;;;;;;;6094281;23;20010;-80
2023/04/07 08:40:15;;;;;;;6.00;2.95;;;;;;;;;;6145564;23;20029;-80
2023/04/07 08:42:42;;;;;;;6.15;3.28;;;;;;;;;;6093701;23;20439;-81
2023/04/07 08:45:08;;;;;;;8.18;3.05;;;;;;;;;;6101802;23;20029;-81
2023/04/07 08:47:35;;;;;;;5.57;2.80;;;;;;;;;;6130178;23;20590;-80
2023/04/07 08:50:08;;;;;;;6.55;2.72;;;;;;;;;;6105320;23;20024;-80
2023/04/07 08:52:49;;;;;;;6.22;2.65;;;;;;;;;;6126329;23;20183;-80
2023/04/07 08:55:14;;;;;;;6.53;3.13;;;;;;;;;;6103412;23;20022;-81
2023/04/07 08:57:42;;;;;;;7.10;2.80;;;;;;;;;;6155143;23;20017;-80
2023/04/07 09:00:09;;;;;;;5.43;2.45;;;;;;;;;;6155324;23;20412;-80
2023/04/07 09:02:36;;;;;;;7.10;2.67;;;;;;;;;;6104406;23;20017;-80
2023/04/07 09:05:03;;;;;;;7.85;2.60;;;;;;;;;;6130461;23;20013;-80
2023/04/07 09:07:32;;;;;;;5.20;2.42;;;;;;;;;;6154603;23;20590;-81
2023/04/07 09:09:58;;;;;;;5.45;2.50;;;;;;;;;;6129741;23;20021;-80
2023/04/07 09:12:24;;;;;;;7.05;2.72;;;;;;;;;;6125870;23;20092;-81
2023/04/07 09:14:49;;;;;;;6.15;3.10;;;;;;;;;;6127466;23;20444;-81
2023/04/07 09:17:14;;;;;;;5.97;2.60;;;;;;;;;;6125306;23;20013;-80
2023/04/07 09:19:40;;;;;;;6.20;3.20;;;;;;;;;;6119950;23;20459;-81
2023/04/07 09:22:05;;;;;;;8.48;3.75;;;;;;;;;;6144060;23;20364;-82
2023/04/07 09:24:31;;;;;;;6.65;3.00;;;;;;;;;;6117064;23;20088;-81
2023/04/07 09:27:14;;;;;;;8.15;3.30;;;;;;;;;;6119358;23;20013;-82
2023/04/07 09:29:41;;;;;;;6.63;3.17;;;;;;;;;;6093857;23;20519;-82
2023/04/07 09:32:07;;;;;;;7.30;3.17;;;;;;;;;;6117530;23;20029;-82
2023/04/07 09:34:38;;;;;;;5.53;2.65;;;;;;;;;;6143724;23;20353;-82
2023/04/07 09:37:08;;;;;;;6.78;2.70;;;;;;;;;;6117133;23;20020;-81
2023/04/07 09:39:47;;;;;;;5.60;2.60;;;;;;;;;;6080850;23;20020;-81
2023/04/07 09:42:13;;;;;;;5.05;2.47;;;;;;;;;;6116684;23;20119;-81
2023/04/07 09:44:40;;;;;;;5.05;2.60;;;;;;;;;;6093083;23;20025;-82
2023/04/07 09:47:06;;;;;;;6.68;2.42;;;;;;;;;;6092307;23;20044;-82
2023/04/07 09:49:31;;;;;;;5.80;2.25;;;;;;;;;;6117262;23;20033;-81
2023/04/07 09:52:06;;;;;;;3.78;1.90;;;;;;;;;;6092751;23;20018;-81
2023/04/07 09:54:32;;;;;;;4.47;1.70;;;;;;;;;;6143776;23;20096;-81
2023/04/07 09:57:00;;;;;;;3.90;2.05;;;;;;;;;;6142966;23;20017;-81
2023/04/07 09:59:27;;;;;;;3.50;1.70;;;;;;;;;;6116954;23;20439;-81
2023/04/07 10:01:53;;;;;;;5.82;2.63;;;;;;;;;;6093018;23;20017;-82
2023/04/07 10:04:19;;;;;;;5.60;2.10;;;;;;;;;;6117897;23;20403;-82
2023/04/07 10:06:45;;;;;;;7.70;2.20;;;;;;;;;;6092503;23;20071;-81
2023/04/07 10:09:10;;;;;;;3.92;1.73;;;;;;;;;;6143380;23;20351;-83
2023/04/07 10:11:36;;;;;;;3.88;1.73;;;;;;;;;;6116885;23;20013;-82
2023/04/07 10:14:02;;;;;;;4.13;2.05;;;;;;;;;;6093760;23;20100;-83
2023/04/07 10:16:28;;;;;;;4.50;1.83;;;;;;;;;;6118100;23;20443;-82
2023/04/07 10:18:54;;;;;;;5.05;2.05;;;;;;;;;;6070193;23;20064;-82
2023/04/07 10:21:20;;;;;;;4.60;2.17;;;;;;;;;;6117686;23;20022;-82
2023/04/07 10:23:50;;;;;;;4.68;1.90;;;;;;;;;;6092823;23;20320;-82
2023/04/07 10:26:23;;;;;;;4.28;1.80;;;;;;;;;;6117304;23;20399;-83
2023/04/07 10:28:51;;;;;;;4.63;1.77;;;;;;;;;;6117796;23;20069;-82
2023/04/07 10:31:17;;;;;;;4.65;1.83;;;;;;;;;;6092714;23;20764;-82
2023/04/07 10:33:49;;;;;;;3.53;1.40;;;;;;;;;;6118026;23;20089;-81
2023/04/07 10:36:16;;;;;;;4.28;1.48;;;;;;;;;;6093685;23;20511;-81
2023/04/07 10:39:08;;;;;;;6.13;1.75;;;;;;;;;;6117789;23;20013;-80
2023/04/07 10:41:38;;;;;;;4.07;1.63;;;;;;;;;;6116806;23;20089;-82
2023/04/07 10:44:05;;;;;;;4.28;1.70;;;;;;;;;;6094227;23;20406;-82
2023/04/07 10:46:50;;;;;;;4.10;1.70;;;;;;;;;;6118097;23;20025;-82
2023/04/07 10:49:16;;;;;;;3.50;1.67;;;;;;;;;;6117753;23;20383;-81
2023/04/07 10:51:41;;;;;;;7.70;2.83;;;;;;;;;;6117941;23;20017;-82
2023/04/07 10:54:19;;;;;;;4.90;1.95;;;;;;;;;;6143622;23;20347;-82
2023/04/07 10:57:02;;;;;;;3.85;1.90;;;;;;;;;;6118394;23;20013;-80
2023/04/07 10:59:28;;;;;;;4.10;1.77;;;;;;;;;;6132232;23;20387;-81
2023/04/07 11:02:16;;;;;;;4.93;1.70;;;;;;;;;;6121598;23;20017;-81
2023/04/07 11:04:44;;;;;;;;;;;;;;;;;;6147739;23;20460;-80
2023/04/07 11:07:11;;;;;;;4.07;1.60;;;;;;;;;;6170406;23;19919;-81
2023/04/07 11:09:37;;;;;;;3.85;1.42;;;;;;;;;;6148408;23;20463;-84
2023/04/07 11:12:03;;;;;;;4.13;1.90;;;;;;;;;;6118475;23;20020;-83
2023/04/07 11:14:30;;;;;;;4.00;1.67;;;;;;;;;;6144240;23;20696;-83
2023/04/07 11:16:56;;;;;;;4.40;1.87;;;;;;;;;;6117266;23;20440;-83
2023/04/07 11:19:22;;;;;;;4.97;1.80;;;;;;;;;;6118180;23;20021;-83
2023/04/07 11:21:47;;;;;;;4.65;1.75;;;;;;;;;;6117958;23;20117;-83
2023/04/07 11:24:39;;;;;;;5.68;1.80;;;;;;;;;;6118067;23;20463;-83
2023/04/07 11:27:05;;;;;;;5.07;2.10;;;;;;;;;;6129999;23;20036;-82
2023/04/07 11:29:32;;;;;;;4.50;2.05;;;;;;;;;;6119899;23;20109;-82
2023/04/07 11:31:58;;;;;;;4.40;2.03;;;;;;;;;;6145793;23;20013;-83
2023/04/07 11:34:29;;;;;;;4.07;1.83;;;;;;;;;;6145605;23;20013;-83
2023/04/07 11:36:58;;;;;;;13.27;5.97;;;;;;;;;;6119674;23;20021;-83
2023/04/07 11:39:26;;;;;;;4.85;2.33;;;;;;;;;;6146103;23;20400;-83
2023/04/07 11:41:52;;;;;;;4.50;2.10;;;;;;;;;;6119773;23;20021;-83
2023/04/07 11:44:18;;;;;;;5.50;2.35;;;;;;;;;;6145803;23;20529;-83
2023/04/07 11:46:55;;;;;;;6.90;2.83;;;;;;;;;;6145620;23;20076;-83
2023/04/07 11:49:22;;;;;;;;;;;;;;;;;;6120021;23;20108;-83
2023/04/07 11:51:48;;;;;;;5.80;2.53;;;;;;;;;;6168180;23;19918;-83
2023/04/07 11:54:14;;;;;;;5.63;2.55;;;;;;;;;;6119251;23;20021;-83
2023/04/07 11:56:41;;;;;;;7.13;2.90;;;;;;;;;;6119472;23;20068;-83
2023/04/07 11:59:07;;;;;;;6.10;2.83;;;;;;;;;;6145376;23;20468;-83
2023/04/07 12:01:43;;;;;;;5.18;2.58;;;;;;;;;;6119341;23;20022;-82
2023/04/07 12:04:13;;;;;;;5.85;3.08;;;;;;;;;;6095553;23;20459;-83
2023/04/07 12:06:40;;;;;;;5.40;2.50;;;;;;;;;;6094633;23;20044;-83
2023/04/07 12:09:06;;;;;;;6.65;2.95;;;;;;;;;;6119820;23;20018;-83
2023/04/07 12:11:32;;;;;;;6.07;3.28;;;;;;;;;;6144457;23;20017;-83
2023/04/07 12:13:58;;;;;;;5.35;2.60;;;;;;;;;;6145903;23;20018;-83
2023/04/07 12:16:23;;;;;;;7.40;3.80;;;;;;;;;;6118477;23;20045;-83
2023/04/07 12:18:50;;;;;;;5.93;3.17;;;;;;;;;;6144911;23;20009;-83
2023/04/07 12:21:16;;;;;;;6.27;3.60;;;;;;;;;;6094259;23;20359;-83
2023/04/07 12:23:48;;;;;;;9.05;3.60;;;;;;;;;;6119566;23;20018;-83
2023/04/07 12:26:14;;;;;;;6.18;3.72;;;;;;;;;;6145114;23;20022;-83
2023/04/07 12:28:39;;;;;;;6.20;3.55;;;;;;;;;;6119678;23;20017;-82
2023/04/07 12:31:05;;;;;;;6.97;3.38;;;;;;;;;;6144827;23;20006;-83
2023/04/07 12:33:30;;;;;;;4.57;2.78;;;;;;;;;;6119237;23;20052;-80
2023/04/07 12:35:57;;;;;;;6.25;3.10;;;;;;;;;;6118706;23;20014;-83
2023/04/07 12:38:22;;;;;;;5.05;3.10;;;;;;;;;;6145646;23;20018;-83
2023/04/07 12:40:48;;;;;;;7.57;3.55;;;;;;;;;;6094367;23;20040;-83
2023/04/07 12:43:13;;;;;;;7.18;4.00;;;;;;;;;;6118243;23;20053;-83
2023/04/07 12:45:39;;;;;;;6.30;3.55;;;;;;;;;;6093994;23;20005;-83
2023/04/07 12:48:04;;;;;;;8.10;4.13;;;;;;;;;;6094170;23;20013;-83
2023/04/07 12:50:30;;;;;;;8.27;3.30;;;;;;;;;;6093714;23;20699;-83
2023/04/07 12:53:02;;;;;;;5.70;3.25;;;;;;;;;;6119475;23;20021;-83
2023/04/07 12:55:28;;;;;;;5.63;2.60;;;;;;;;;;6095193;23;20018;-83
2023/04/07 12:57:54;;;;;;;6.25;3.20;;;;;;;;;;6118874;23;20369;-84
2023/04/07 13:00:20;;;;;;;5.55;2.85;;;;;;;;;;6118952;23;20024;-84
2023/04/07 13:02:45;;;;;;;6.20;2.85;;;;;;;;;;6118748;23;20010;-83
2023/04/07 13:05:11;;;;;;;5.00;2.53;;;;;;;;;;6094699;23;20025;-82
2023/04/07 13:07:37;;;;;;;6.70;2.90;;;;;;;;;;6094130;23;20021;-84
2023/04/07 13:10:04;;;;;;;6.50;2.88;;;;;;;;;;6119449;23;20013;-83
2023/04/07 13:12:30;;;;;;;5.80;2.88;;;;;;;;;;6119282;23;20045;-83
2023/04/07 13:14:55;;;;;;;6.47;3.00;;;;;;;;;;6118792;23;20045;-83
2023/04/07 13:17:20;;;;;;;5.88;2.60;;;;;;;;;;6144267;23;20052;-83
2023/04/07 13:19:46;;;;;;;5.50;3.08;;;;;;;;;;6094151;23;20021;-83
2023/04/07 13:22:12;;;;;;;5.72;2.90;;;;;;;;;;6116379;23;20049;-82
2023/04/07 13:24:37;;;;;;;5.28;2.75;;;;;;;;;;6118441;23;20013;-83
2023/04/07 13:27:03;;;;;;;6.72;2.58;;;;;;;;;;6118047;23;20346;-83
2023/04/07 13:29:29;;;;;;;6.03;3.17;;;;;;;;;;6145884;23;20021;-83
2023/04/07 13:32:04;;;;;;;5.47;3.20;;;;;;;;;;6143888;23;20017;-83
2023/04/07 13:34:29;;;;;;;6.40;3.35;;;;;;;;;;6118720;23;20482;-83
2023/04/07 13:36:55;;;;;;;8.10;4.03;;;;;;;;;;6143967;23;20017;-84
2023/04/07 13:39:20;;;;;;;6.75;4.20;;;;;;;;;;6093361;23;20056;-84
2023/04/07 13:41:46;;;;;;;7.78;3.92;;;;;;;;;;6093315;23;20009;-84
2023/04/07 13:44:11;;;;;;;5.22;3.08;;;;;;;;;;6117881;23;20416;-84
2023/04/07 13:46:36;;;;;;;5.00;2.60;;;;;;;;;;6117619;23;20113;-83
2023/04/07 13:49:02;;;;;;;4.15;2.40;;;;;;;;;;6118683;23;20013;-82
2023/04/07 13:51:28;;;;;;;5.00;2.00;;;;;;;;;;6143216;23;20021;-83
2023/04/07 13:53:53;;;;;;;4.25;2.20;;;;;;;;;;6118675;23;20072;-84
2023/04/07 13:56:19;;;;;;;5.00;2.15;;;;;;;;;;6093424;23;20052;-83
2023/04/07 13:58:44;;;;;;;5.30;2.58;;;;;;;;;;6119527;23;20013;-83
2023/04/07 14:01:10;;;;;;;4.28;2.30;;;;;;;;;;6144420;23;20561;-83
2023/04/07 14:03:36;;;;;;;4.07;2.20;;;;;;;;;;6118097;23;20017;-83
2023/04/07 14:06:01;;;;;;;5.30;2.60;;;;;;;;;;6118572;23;20014;-84
2023/04/07 14:08:27;;;;;;;5.80;2.50;;;;;;;;;;6119100;23;20022;-84
2023/04/07 14:10:52;;;;;;;4.95;2.63;;;;;;;;;;6144322;23;20014;-84
2023/04/07 14:13:20;;;;;;;6.50;2.85;;;;;;;;;;6118282;23;20333;-83
2023/04/07 14:15:47;;;;;;;6.18;2.90;;;;;;;;;;6117591;23;20421;-84
2023/04/07 14:18:13;;;;;;;6.18;3.10;;;;;;;;;;6094475;23;20018;-83
2023/04/07 14:20:39;;;;;;;6.35;3.28;;;;;;;;;;6091617;23;20017;-83
2023/04/07 14:23:04;;;;;;;6.85;3.63;;;;;;;;;;6118159;23;20060;-83
2023/04/07 14:25:31;;;;;;;5.85;3.00;;;;;;;;;;6103781;23;20449;-83
2023/04/07 14:27:56;;;;;;;7.10;3.10;;;;;;;;;;6105199;23;20020;-83
2023/04/07 14:30:22;;;;;;;4.85;2.88;;;;;;;;;;6093701;23;20381;-81
2023/04/07 14:32:47;;;;;;;6.05;3.22;;;;;;;;;;6118323;23;20035;-84
2023/04/07 14:35:12;;;;;;;4.93;2.97;;;;;;;;;;6113414;23;20029;-83
2023/04/07 14:37:38;;;;;;;5.07;3.10;;;;;;;;;;6118520;23;20041;-83
2023/04/07 14:40:04;;;;;;;5.43;3.30;;;;;;;;;;6118736;23;20403;-84